createdAt,value
2023-02-07T00:02:56.730Z,103059.94
2023-02-07T00:07:53.630Z,103027.59
2023-02-07T00:12:50.459Z,103081.88
2023-02-07T00:17:47.350Z,103083.56
2023-02-07T00:22:45.380Z,103018.81
2023-02-07T00:27:42.249Z,103080.19
2023-02-07T00:32:39.064Z,103048.59
2023-02-07T00:37:36.061Z,103020.53
2023-02-07T00:42:34.429Z,103081.81
2023-02-07T00:47:31.356Z,103085.25
2023-02-07T00:52:28.189Z,102997.69
2023-02-07T00:57:25.042Z,103021.47
2023-02-07T01:02:22.725Z,103075.75
2023-02-07T01:07:19.852Z,103075.69
2023-02-07T01:12:16.791Z,103054.66
2023-02-07T01:17:13.697Z,103014.50
2023-02-07T01:22:11.297Z,103043.44
2023-02-07T01:27:08.076Z,103033.84
2023-02-07T01:32:05.038Z,103048.69
2023-02-07T01:37:02.013Z,103022.31
2023-02-07T01:42:00.105Z,103062.53
2023-02-07T01:46:57.356Z,103046.63
2023-02-07T01:51:57.970Z,103043.78
2023-02-07T01:56:59.360Z,103010.41
2023-02-07T02:02:00.006Z,103000.56
2023-02-07T02:06:57.685Z,103041.66
2023-02-07T02:12:18.186Z,103024.88
2023-02-07T02:17:25.522Z,103069.31
2023-02-07T02:22:51.986Z,103021.03
2023-02-07T02:28:17.261Z,103081.25
2023-02-07T02:33:46.569Z,103081.22
2023-02-07T02:38:50.478Z,103024.97
2023-02-07T02:43:53.065Z,103081.72
2023-02-07T02:48:53.429Z,103061.56
2023-02-07T02:53:52.484Z,103092.34
2023-02-07T02:59:14.857Z,103047.91
2023-02-07T03:04:32.688Z,103084.72
2023-02-07T03:09:43.076Z,103075.13
2023-02-07T03:14:48.654Z,103034.00
2023-02-07T03:19:53.737Z,103054.16
2023-02-07T03:24:53.631Z,103076.06
2023-02-07T03:29:57.011Z,103095.09
2023-02-07T03:34:58.421Z,103088.06
2023-02-07T03:39:56.165Z,103073.25
2023-02-07T03:44:55.794Z,103082.97
2023-02-07T03:49:52.726Z,103025.03
2023-02-07T03:54:50.477Z,103096.19
2023-02-07T03:59:47.367Z,103096.13
2023-02-07T04:04:44.514Z,103075.00
2023-02-07T04:09:41.701Z,103080.06
2023-02-07T04:14:39.307Z,103058.09
2023-02-07T04:19:36.208Z,103115.59
2023-02-07T04:24:35.329Z,103111.22
2023-02-07T04:29:32.372Z,103115.53
2023-02-07T04:34:29.979Z,103058.47
2023-02-07T04:39:27.003Z,103061.06
2023-02-07T04:44:23.904Z,103076.00
2023-02-07T04:49:20.968Z,102990.88
2023-02-07T04:54:18.625Z,103113.28
2023-02-07T04:59:15.588Z,103105.38
2023-02-07T05:04:12.498Z,103144.78
2023-02-07T05:09:09.368Z,103075.53
2023-02-07T05:14:07.033Z,103083.28
2023-02-07T05:19:04.822Z,103082.25
2023-02-07T05:24:01.740Z,103138.00
2023-02-07T05:28:58.699Z,103139.91
2023-02-07T05:33:56.378Z,103162.72
2023-02-07T05:38:53.545Z,103168.84
2023-02-07T05:43:50.527Z,103124.91
2023-02-07T05:48:47.804Z,103156.09
2023-02-07T05:53:45.459Z,103093.81
2023-02-07T05:58:42.923Z,103142.03
2023-02-07T06:03:39.814Z,103166.59
2023-02-07T06:08:38.140Z,103201.31
2023-02-07T06:13:35.848Z,103172.19
2023-02-07T06:18:34.478Z,103201.72
2023-02-07T06:23:31.363Z,103198.75
2023-02-07T06:28:28.655Z,103125.47
2023-02-07T06:33:26.333Z,103156.25
2023-02-07T06:38:23.261Z,103187.84
2023-02-07T06:43:20.237Z,103181.28
2023-02-07T06:48:17.226Z,103125.66
2023-02-07T06:53:14.727Z,103157.88
2023-02-07T06:58:11.700Z,103160.97
2023-02-07T07:03:12.915Z,103172.66
2023-02-07T07:08:14.871Z,103151.06
2023-02-07T07:13:12.814Z,103121.69
2023-02-07T07:18:09.825Z,103169.16
2023-02-07T07:23:06.892Z,103181.41
2023-02-07T07:28:04.228Z,103188.78
2023-02-07T07:33:01.866Z,103143.28
2023-02-07T07:38:03.575Z,103177.09
2023-02-07T07:43:06.920Z,103185.88
2023-02-07T07:48:18.556Z,103045.84
2023-02-07T07:53:16.836Z,103062.66
2023-02-07T07:58:13.676Z,103139.22
2023-02-07T08:03:12.182Z,103070.03
2023-02-07T08:08:10.110Z,103167.63
2023-02-07T08:13:07.310Z,103141.91
2023-02-07T08:18:04.537Z,103169.44
2023-02-07T08:23:04.223Z,103177.13
2023-02-07T08:28:04.418Z,103182.44
2023-02-07T08:33:01.850Z,103145.09
2023-02-07T08:37:58.692Z,103172.50
2023-02-07T08:42:55.719Z,103134.63
2023-02-07T08:47:55.061Z,103140.81
2023-02-07T08:52:54.352Z,103128.50
2023-02-07T08:57:54.410Z,103147.34
2023-02-07T09:02:51.800Z,103115.41
2023-02-07T09:07:49.751Z,103185.88
2023-02-07T09:12:47.723Z,103120.81
2023-02-07T09:17:47.178Z,103165.56
2023-02-07T09:23:03.100Z,103170.47
2023-02-07T09:28:01.635Z,103085.47
2023-02-07T09:32:59.528Z,103174.09
2023-02-07T09:37:58.456Z,103127.69
2023-02-07T09:43:01.303Z,103156.28
2023-02-07T09:48:04.220Z,103094.53
2023-02-07T09:53:06.743Z,103139.50
2023-02-07T09:58:09.681Z,103105.41
2023-02-07T10:03:15.123Z,103117.16
2023-02-07T10:08:15.299Z,103095.44
2023-02-07T10:13:38.009Z,103086.91
2023-02-07T10:18:45.151Z,103081.09
2023-02-07T10:23:57.137Z,103072.41
2023-02-07T10:29:13.474Z,103085.69
2023-02-07T10:34:18.632Z,103029.78
2023-02-07T10:39:21.771Z,103025.50
2023-02-07T10:44:20.221Z,103068.66
2023-02-07T10:49:25.356Z,103081.94
2023-02-07T10:54:23.927Z,103059.38
2023-02-07T10:59:34.918Z,103060.50
2023-02-07T11:04:38.236Z,103061.03
2023-02-07T11:09:37.148Z,103026.03
2023-02-07T11:14:36.313Z,103033.13
2023-02-07T11:19:33.438Z,103036.34
2023-02-07T11:24:35.707Z,103035.69
2023-02-07T11:29:39.977Z,102993.94
2023-02-07T11:34:45.691Z,102953.09
2023-02-07T11:39:44.095Z,103013.41
2023-02-07T11:44:42.349Z,102996.88
2023-02-07T11:49:43.357Z,102966.38
2023-02-07T11:54:41.674Z,102982.94
2023-02-07T11:59:46.884Z,102924.50
2023-02-07T12:04:52.684Z,102995.97
2023-02-07T12:09:51.656Z,102992.44
2023-02-07T12:14:54.600Z,102986.28
2023-02-07T12:19:56.007Z,102980.25
2023-02-07T12:24:57.975Z,102980.28
2023-02-07T12:30:02.126Z,102922.75
2023-02-07T12:35:05.497Z,102989.00
2023-02-07T12:40:10.144Z,102968.94
2023-02-07T12:45:14.423Z,102976.81
2023-02-07T12:50:41.937Z,102965.53
2023-02-07T12:55:49.821Z,102968.16
2023-02-07T13:00:57.345Z,102958.59
2023-02-07T13:06:06.548Z,102894.09
2023-02-07T13:11:15.552Z,102926.34
2023-02-07T13:16:18.349Z,102887.13
2023-02-07T13:21:23.961Z,102949.88
2023-02-07T13:26:24.419Z,102958.47
2023-02-07T13:31:30.262Z,102958.41
2023-02-07T13:36:43.799Z,102953.94
2023-02-07T13:41:52.892Z,102967.00
2023-02-07T13:47:12.729Z,102941.72
2023-02-07T13:52:24.039Z,102825.75
2023-02-07T13:57:55.564Z,102965.25
2023-02-07T14:02:55.278Z,102928.59
2023-02-07T14:08:00.212Z,102877.03
2023-02-07T14:12:59.848Z,102959.03
2023-02-07T14:18:00.884Z,102919.72
2023-02-07T14:23:14.312Z,102937.13
2023-02-07T14:28:32.856Z,102958.00
2023-02-07T14:33:34.231Z,102953.63
2023-02-07T14:38:36.469Z,102949.25
2023-02-07T14:43:41.833Z,102952.69
2023-02-07T14:48:51.717Z,102959.53
2023-02-07T14:54:05.460Z,102904.53
2023-02-07T14:59:02.875Z,102924.56
2023-02-07T15:04:08.677Z,102954.16
2023-02-07T15:09:06.095Z,102939.22
2023-02-07T15:14:06.660Z,102862.28
2023-02-07T15:19:12.611Z,102945.16
2023-02-07T15:24:18.172Z,102937.25
2023-02-07T15:29:21.140Z,102905.72
2023-02-07T15:34:23.451Z,102976.25
2023-02-07T15:39:23.053Z,102960.41
2023-02-07T15:44:22.202Z,102954.16
2023-02-07T15:49:28.867Z,102968.91
2023-02-07T15:54:27.287Z,102971.47
2023-02-07T15:59:27.828Z,102932.16
2023-02-07T16:04:35.074Z,102990.69
2023-02-07T16:09:38.568Z,102941.78
2023-02-07T16:14:40.723Z,102990.69
2023-02-07T16:19:45.878Z,102989.78
2023-02-07T16:24:46.430Z,103001.16
2023-02-07T16:29:44.560Z,102892.72
2023-02-07T16:34:58.639Z,103006.34
2023-02-07T16:39:56.511Z,102987.97
2023-02-07T16:44:54.856Z,102987.97
2023-02-07T16:49:55.690Z,102886.66
2023-02-07T16:54:53.955Z,102994.88
2023-02-07T16:59:53.518Z,102986.16
2023-02-07T17:05:06.543Z,102908.38
2023-02-07T17:10:18.048Z,102931.94
2023-02-07T17:15:15.404Z,102991.25
2023-02-07T17:20:22.444Z,103018.34
2023-02-07T17:25:21.904Z,102907.19
2023-02-07T17:30:24.089Z,102982.16
2023-02-07T17:35:23.240Z,102965.41
2023-02-07T17:40:28.105Z,103018.66
2023-02-07T17:45:28.424Z,103014.97
2023-02-07T17:50:29.450Z,103041.13
2023-02-07T17:55:39.341Z,103045.44
2023-02-07T18:00:38.916Z,103008.66
2023-02-07T18:05:36.714Z,103008.59
2023-02-07T18:10:35.240Z,103000.66
2023-02-07T18:15:32.570Z,103054.88
2023-02-07T18:20:31.530Z,103049.63
2023-02-07T18:25:30.043Z,103032.91
2023-02-07T18:30:28.573Z,102987.28
2023-02-07T18:35:25.458Z,103058.03
2023-02-07T18:40:22.342Z,103014.13
2023-02-07T18:45:19.437Z,103062.13
2023-02-07T18:50:19.062Z,102993.88
2023-02-07T18:55:16.082Z,103070.81
2023-02-07T19:00:14.069Z,103025.25
2023-02-07T19:05:10.882Z,103008.66
2023-02-07T19:10:14.867Z,103076.75
2023-02-07T19:15:11.914Z,103058.22
2023-02-07T19:20:13.356Z,103083.53
2023-02-07T19:25:12.633Z,103036.13
2023-02-07T19:30:12.530Z,103079.94
2023-02-07T19:35:09.344Z,103034.34
2023-02-07T19:40:07.008Z,103072.91
2023-02-07T19:45:06.406Z,103017.00
2023-02-07T19:50:03.704Z,103084.47
2023-02-07T19:55:00.683Z,103079.28
2023-02-07T19:59:57.689Z,103065.28
2023-02-07T20:04:55.307Z,103101.22
2023-02-07T20:09:52.262Z,103098.69
2023-02-07T20:14:49.360Z,103113.59
2023-02-07T20:19:46.595Z,103010.38
2023-02-07T20:24:44.487Z,103124.22
2023-02-07T20:29:41.332Z,103128.63
2023-02-07T20:34:40.214Z,103089.16
2023-02-07T20:39:37.768Z,103094.56
2023-02-07T20:44:35.313Z,103115.47
2023-02-07T20:49:32.256Z,103132.19
2023-02-07T20:54:30.379Z,103088.44
2023-02-07T20:59:28.805Z,103140.91
2023-02-07T21:04:26.997Z,103122.59
2023-02-07T21:09:23.882Z,103140.03
2023-02-07T21:14:24.971Z,103146.06
2023-02-07T21:19:24.683Z,103126.78
2023-02-07T21:24:22.254Z,103115.47
2023-02-07T21:29:20.385Z,103101.19
2023-02-07T21:34:20.428Z,103100.22
2023-02-07T21:39:17.998Z,103112.41
2023-02-07T21:44:15.961Z,103146.31
2023-02-07T21:49:15.579Z,103170.81
2023-02-07T21:54:12.786Z,103168.13
2023-02-07T21:59:12.709Z,103175.19
2023-02-07T22:04:10.802Z,103145.47
2023-02-07T22:09:12.486Z,103198.03
2023-02-07T22:14:10.724Z,103198.91
2023-02-07T22:19:12.667Z,103133.19
2023-02-07T22:24:11.650Z,103208.41
2023-02-07T22:29:09.723Z,103223.03
2023-02-07T22:34:08.372Z,103188.91
2023-02-07T22:39:07.527Z,103220.19
2023-02-07T22:44:05.834Z,103222.66
2023-02-07T22:49:02.953Z,103196.25
2023-02-07T22:54:04.982Z,103217.22
2023-02-07T22:59:01.918Z,103232.88
2023-02-07T23:04:01.086Z,103224.16
2023-02-07T23:08:58.244Z,103158.34
2023-02-07T23:13:55.166Z,103203.84
2023-02-07T23:18:55.563Z,103188.00
2023-02-07T23:23:54.224Z,103161.66
2023-02-07T23:28:51.525Z,103250.03
2023-02-07T23:33:48.425Z,103249.91
2023-02-07T23:38:45.857Z,103258.31
2023-02-07T23:43:43.449Z,103211.41
2023-02-07T23:48:40.308Z,103252.63
2023-02-07T23:53:37.147Z,103217.28
2023-02-07T23:58:34.510Z,103271.56
